sensor_id;sensor_type;location;lat;lon;timestamp;P1;durP1;ratioP1;P2;durP2;ratioP2
20022;SDS011;10172;42.054;24.546;2023-06-26T00:01:17;8.10;;;3.35;;
20022;SDS011;10172;42.054;24.546;2023-06-26T00:03:48;7.15;;;3.92;;
20022;SDS011;10172;42.054;24.546;2023-06-26T00:06:13;9.07;;;3.85;;
20022;SDS011;10172;42.054;24.546;2023-06-26T00:08:39;6.90;;;3.70;;
20022;SDS011;10172;42.054;24.546;2023-06-26T00:11:05;7.90;;;4.00;;
20022;SDS011;10172;42.054;24.546;2023-06-26T00:13:31;7.70;;;3.88;;
20022;SDS011;10172;42.054;24.546;2023-06-26T00:15:56;6.57;;;3.80;;
20022;SDS011;10172;42.054;24.546;2023-06-26T00:18:21;14.68;;;4.10;;
20022;SDS011;10172;42.054;24.546;2023-06-26T00:20:48;9.05;;;4.05;;
20022;SDS011;10172;42.054;24.546;2023-06-26T00:23:15;6.82;;;3.90;;
20022;SDS011;10172;42.054;24.546;2023-06-26T00:25:42;7.55;;;4.05;;
20022;SDS011;10172;42.054;24.546;2023-06-26T00:28:07;7.95;;;4.07;;
20022;SDS011;10172;42.054;24.546;2023-06-26T00:30:33;8.57;;;4.03;;
20022;SDS011;10172;42.054;24.546;2023-06-26T00:32:58;8.15;;;4.05;;
20022;SDS011;10172;42.054;24.546;2023-06-26T00:35:24;9.43;;;4.65;;
20022;SDS011;10172;42.054;24.546;2023-06-26T00:37:49;11.60;;;4.15;;
20022;SDS011;10172;42.054;24.546;2023-06-26T00:40:15;8.50;;;4.25;;
20022;SDS011;10172;42.054;24.546;2023-06-26T00:42:40;8.23;;;4.18;;
20022;SDS011;10172;42.054;24.546;2023-06-26T00:45:06;8.35;;;3.88;;
20022;SDS011;10172;42.054;24.546;2023-06-26T00:47:31;6.60;;;3.85;;
20022;SDS011;10172;42.054;24.546;2023-06-26T00:49:57;7.40;;;3.67;;
20022;SDS011;10172;42.054;24.546;2023-06-26T00:52:22;8.18;;;3.92;;
20022;SDS011;10172;42.054;24.546;2023-06-26T00:54:49;9.38;;;4.38;;
20022;SDS011;10172;42.054;24.546;2023-06-26T00:57:16;8.07;;;3.58;;
20022;SDS011;10172;42.054;24.546;2023-06-26T00:59:42;7.70;;;3.95;;
20022;SDS011;10172;42.054;24.546;2023-06-26T01:02:07;9.07;;;4.55;;
20022;SDS011;10172;42.054;24.546;2023-06-26T01:04:34;6.68;;;4.03;;
20022;SDS011;10172;42.054;24.546;2023-06-26T01:07:00;9.00;;;4.68;;
20022;SDS011;10172;42.054;24.546;2023-06-26T01:09:27;10.18;;;4.25;;
20022;SDS011;10172;42.054;24.546;2023-06-26T01:11:53;7.50;;;4.03;;
20022;SDS011;10172;42.054;24.546;2023-06-26T01:14:19;7.97;;;4.15;;
20022;SDS011;10172;42.054;24.546;2023-06-26T01:16:45;9.00;;;4.25;;
20022;SDS011;10172;42.054;24.546;2023-06-26T01:19:24;7.25;;;3.85;;
20022;SDS011;10172;42.054;24.546;2023-06-26T01:22:02;8.00;;;3.70;;
20022;SDS011;10172;42.054;24.546;2023-06-26T01:27:49;7.18;;;4.18;;
20022;SDS011;10172;42.054;24.546;2023-06-26T01:30:17;6.57;;;3.75;;
20022;SDS011;10172;42.054;24.546;2023-06-26T01:32:45;9.20;;;4.07;;
20022;SDS011;10172;42.054;24.546;2023-06-26T01:35:11;8.43;;;4.20;;
20022;SDS011;10172;42.054;24.546;2023-06-26T01:37:37;11.98;;;4.35;;
20022;SDS011;10172;42.054;24.546;2023-06-26T01:40:03;7.57;;;3.67;;
20022;SDS011;10172;42.054;24.546;2023-06-26T01:42:32;9.10;;;3.90;;
20022;SDS011;10172;42.054;24.546;2023-06-26T01:44:59;9.60;;;4.25;;
20022;SDS011;10172;42.054;24.546;2023-06-26T01:47:31;8.93;;;4.38;;
20022;SDS011;10172;42.054;24.546;2023-06-26T01:55:56;8.57;;;4.22;;
20022;SDS011;10172;42.054;24.546;2023-06-26T01:58:37;10.57;;;4.70;;
20022;SDS011;10172;42.054;24.546;2023-06-26T02:01:10;11.20;;;3.63;;
20022;SDS011;10172;42.054;24.546;2023-06-26T02:03:35;6.85;;;3.88;;
20022;SDS011;10172;42.054;24.546;2023-06-26T02:06:01;11.93;;;4.50;;
20022;SDS011;10172;42.054;24.546;2023-06-26T02:08:26;12.95;;;4.57;;
20022;SDS011;10172;42.054;24.546;2023-06-26T02:10:52;10.88;;;4.18;;
20022;SDS011;10172;42.054;24.546;2023-06-26T02:13:17;7.90;;;4.43;;
20022;SDS011;10172;42.054;24.546;2023-06-26T02:15:42;11.02;;;4.38;;
20022;SDS011;10172;42.054;24.546;2023-06-26T02:18:08;9.43;;;4.60;;
20022;SDS011;10172;42.054;24.546;2023-06-26T02:20:33;6.72;;;4.32;;
20022;SDS011;10172;42.054;24.546;2023-06-26T02:22:59;6.15;;;3.38;;
20022;SDS011;10172;42.054;24.546;2023-06-26T02:25:24;10.57;;;4.47;;
20022;SDS011;10172;42.054;24.546;2023-06-26T02:27:50;6.57;;;4.50;;
20022;SDS011;10172;42.054;24.546;2023-06-26T02:30:15;9.10;;;5.00;;
20022;SDS011;10172;42.054;24.546;2023-06-26T02:32:41;7.78;;;4.05;;
20022;SDS011;10172;42.054;24.546;2023-06-26T02:35:06;8.32;;;4.45;;
20022;SDS011;10172;42.054;24.546;2023-06-26T02:37:32;8.57;;;4.28;;
20022;SDS011;10172;42.054;24.546;2023-06-26T02:39:58;9.30;;;4.55;;
20022;SDS011;10172;42.054;24.546;2023-06-26T02:42:23;10.57;;;4.72;;
20022;SDS011;10172;42.054;24.546;2023-06-26T02:44:49;9.35;;;4.60;;
20022;SDS011;10172;42.054;24.546;2023-06-26T02:47:14;9.50;;;4.65;;
20022;SDS011;10172;42.054;24.546;2023-06-26T02:49:39;6.57;;;3.85;;
20022;SDS011;10172;42.054;24.546;2023-06-26T02:52:05;7.65;;;4.07;;
20022;SDS011;10172;42.054;24.546;2023-06-26T02:54:31;8.40;;;4.70;;
20022;SDS011;10172;42.054;24.546;2023-06-26T02:56:57;9.35;;;4.20;;
20022;SDS011;10172;42.054;24.546;2023-06-26T02:59:24;9.30;;;4.60;;
20022;SDS011;10172;42.054;24.546;2023-06-26T03:01:50;8.85;;;4.30;;
20022;SDS011;10172;42.054;24.546;2023-06-26T03:04:15;9.32;;;4.85;;
20022;SDS011;10172;42.054;24.546;2023-06-26T03:06:42;10.05;;;4.38;;
20022;SDS011;10172;42.054;24.546;2023-06-26T03:09:08;9.85;;;4.90;;
20022;SDS011;10172;42.054;24.546;2023-06-26T03:11:34;11.02;;;5.40;;
20022;SDS011;10172;42.054;24.546;2023-06-26T03:13:59;9.55;;;5.43;;
20022;SDS011;10172;42.054;24.546;2023-06-26T03:16:24;9.18;;;4.60;;
20022;SDS011;10172;42.054;24.546;2023-06-26T03:18:50;10.32;;;5.32;;
20022;SDS011;10172;42.054;24.546;2023-06-26T03:21:16;10.73;;;4.75;;
20022;SDS011;10172;42.054;24.546;2023-06-26T03:23:42;10.18;;;4.82;;
20022;SDS011;10172;42.054;24.546;2023-06-26T03:26:08;10.80;;;5.00;;
20022;SDS011;10172;42.054;24.546;2023-06-26T03:28:33;10.02;;;5.10;;
20022;SDS011;10172;42.054;24.546;2023-06-26T03:30:58;8.82;;;4.57;;
20022;SDS011;10172;42.054;24.546;2023-06-26T03:33:24;9.25;;;4.35;;
20022;SDS011;10172;42.054;24.546;2023-06-26T03:35:50;10.05;;;4.55;;
20022;SDS011;10172;42.054;24.546;2023-06-26T03:38:15;10.45;;;5.63;;
20022;SDS011;10172;42.054;24.546;2023-06-26T03:40:41;7.93;;;4.80;;
20022;SDS011;10172;42.054;24.546;2023-06-26T03:43:06;8.68;;;5.22;;
20022;SDS011;10172;42.054;24.546;2023-06-26T03:45:31;8.35;;;5.03;;
20022;SDS011;10172;42.054;24.546;2023-06-26T03:47:57;10.75;;;5.32;;
20022;SDS011;10172;42.054;24.546;2023-06-26T03:50:22;10.98;;;5.32;;
20022;SDS011;10172;42.054;24.546;2023-06-26T03:52:48;8.15;;;5.57;;
20022;SDS011;10172;42.054;24.546;2023-06-26T03:55:15;10.10;;;5.78;;
20022;SDS011;10172;42.054;24.546;2023-06-26T03:57:41;11.75;;;5.43;;
20022;SDS011;10172;42.054;24.546;2023-06-26T04:00:06;13.70;;;5.82;;
20022;SDS011;10172;42.054;24.546;2023-06-26T04:02:38;10.57;;;5.45;;
20022;SDS011;10172;42.054;24.546;2023-06-26T04:05:04;13.07;;;6.40;;
20022;SDS011;10172;42.054;24.546;2023-06-26T04:07:30;9.63;;;5.75;;
20022;SDS011;10172;42.054;24.546;2023-06-26T04:09:56;11.00;;;5.32;;
20022;SDS011;10172;42.054;24.546;2023-06-26T04:12:22;10.05;;;5.00;;
20022;SDS011;10172;42.054;24.546;2023-06-26T04:14:47;9.27;;;5.30;;
20022;SDS011;10172;42.054;24.546;2023-06-26T04:17:13;8.95;;;5.30;;
20022;SDS011;10172;42.054;24.546;2023-06-26T04:19:38;11.18;;;5.97;;
20022;SDS011;10172;42.054;24.546;2023-06-26T04:22:04;10.68;;;5.80;;
20022;SDS011;10172;42.054;24.546;2023-06-26T04:24:29;10.13;;;5.28;;
20022;SDS011;10172;42.054;24.546;2023-06-26T04:26:55;9.25;;;5.13;;
20022;SDS011;10172;42.054;24.546;2023-06-26T04:29:23;8.98;;;4.80;;
20022;SDS011;10172;42.054;24.546;2023-06-26T04:31:51;9.07;;;5.30;;
20022;SDS011;10172;42.054;24.546;2023-06-26T04:34:17;9.05;;;5.05;;
20022;SDS011;10172;42.054;24.546;2023-06-26T04:36:42;7.57;;;4.60;;
20022;SDS011;10172;42.054;24.546;2023-06-26T04:39:11;7.40;;;4.85;;
20022;SDS011;10172;42.054;24.546;2023-06-26T04:41:37;7.68;;;4.50;;
20022;SDS011;10172;42.054;24.546;2023-06-26T04:44:02;8.13;;;4.68;;
20022;SDS011;10172;42.054;24.546;2023-06-26T04:46:28;8.80;;;4.90;;
20022;SDS011;10172;42.054;24.546;2023-06-26T04:48:53;11.07;;;5.75;;
20022;SDS011;10172;42.054;24.546;2023-06-26T04:51:19;8.68;;;4.47;;
20022;SDS011;10172;42.054;24.546;2023-06-26T04:53:46;7.28;;;4.63;;
20022;SDS011;10172;42.054;24.546;2023-06-26T04:56:11;9.05;;;4.68;;
20022;SDS011;10172;42.054;24.546;2023-06-26T04:58:36;7.10;;;4.50;;
20022;SDS011;10172;42.054;24.546;2023-06-26T05:01:02;8.88;;;5.20;;
20022;SDS011;10172;42.054;24.546;2023-06-26T05:03:27;9.38;;;5.05;;
20022;SDS011;10172;42.054;24.546;2023-06-26T05:05:53;11.52;;;4.97;;
20022;SDS011;10172;42.054;24.546;2023-06-26T05:08:20;10.68;;;4.80;;
20022;SDS011;10172;42.054;24.546;2023-06-26T05:10:46;7.63;;;4.22;;
20022;SDS011;10172;42.054;24.546;2023-06-26T05:13:12;10.77;;;5.13;;
20022;SDS011;10172;42.054;24.546;2023-06-26T05:15:44;8.45;;;4.45;;
20022;SDS011;10172;42.054;24.546;2023-06-26T05:18:10;9.90;;;4.85;;
20022;SDS011;10172;42.054;24.546;2023-06-26T05:20:35;8.63;;;5.05;;
20022;SDS011;10172;42.054;24.546;2023-06-26T05:23:02;9.23;;;5.45;;
20022;SDS011;10172;42.054;24.546;2023-06-26T05:25:28;10.07;;;5.65;;
20022;SDS011;10172;42.054;24.546;2023-06-26T05:27:55;7.38;;;5.13;;
20022;SDS011;10172;42.054;24.546;2023-06-26T05:30:22;10.10;;;5.10;;
20022;SDS011;10172;42.054;24.546;2023-06-26T05:32:50;9.05;;;5.15;;
20022;SDS011;10172;42.054;24.546;2023-06-26T05:35:16;8.85;;;4.82;;
20022;SDS011;10172;42.054;24.546;2023-06-26T05:37:43;7.90;;;4.63;;
20022;SDS011;10172;42.054;24.546;2023-06-26T05:40:09;8.98;;;4.90;;
20022;SDS011;10172;42.054;24.546;2023-06-26T05:42:36;8.43;;;5.68;;
20022;SDS011;10172;42.054;24.546;2023-06-26T05:45:01;7.97;;;4.53;;
20022;SDS011;10172;42.054;24.546;2023-06-26T05:47:27;8.55;;;5.43;;
20022;SDS011;10172;42.054;24.546;2023-06-26T05:49:52;9.00;;;5.00;;
20022;SDS011;10172;42.054;24.546;2023-06-26T05:52:18;7.28;;;4.18;;
20022;SDS011;10172;42.054;24.546;2023-06-26T05:54:44;8.85;;;4.60;;
20022;SDS011;10172;42.054;24.546;2023-06-26T05:57:09;7.82;;;4.60;;
20022;SDS011;10172;42.054;24.546;2023-06-26T05:59:37;10.07;;;5.00;;
20022;SDS011;10172;42.054;24.546;2023-06-26T06:02:05;7.80;;;4.35;;
20022;SDS011;10172;42.054;24.546;2023-06-26T06:04:31;9.20;;;5.18;;
20022;SDS011;10172;42.054;24.546;2023-06-26T06:06:56;7.50;;;4.57;;
20022;SDS011;10172;42.054;24.546;2023-06-26T06:09:22;8.77;;;4.97;;
20022;SDS011;10172;42.054;24.546;2023-06-26T06:11:47;7.60;;;4.47;;
20022;SDS011;10172;42.054;24.546;2023-06-26T06:14:12;8.27;;;4.70;;
20022;SDS011;10172;42.054;24.546;2023-06-26T06:16:38;7.82;;;4.72;;
20022;SDS011;10172;42.054;24.546;2023-06-26T06:19:03;6.55;;;4.03;;
20022;SDS011;10172;42.054;24.546;2023-06-26T06:21:31;8.32;;;4.80;;
20022;SDS011;10172;42.054;24.546;2023-06-26T06:23:57;6.55;;;4.38;;
20022;SDS011;10172;42.054;24.546;2023-06-26T06:26:22;8.82;;;4.18;;
20022;SDS011;10172;42.054;24.546;2023-06-26T06:28:48;6.57;;;4.05;;
20022;SDS011;10172;42.054;24.546;2023-06-26T06:31:14;5.60;;;3.20;;
20022;SDS011;10172;42.054;24.546;2023-06-26T06:33:39;6.60;;;3.60;;
20022;SDS011;10172;42.054;24.546;2023-06-26T06:36:05;7.22;;;4.00;;
20022;SDS011;10172;42.054;24.546;2023-06-26T06:38:30;5.43;;;2.95;;
20022;SDS011;10172;42.054;24.546;2023-06-26T06:40:56;6.50;;;3.13;;
20022;SDS011;10172;42.054;24.546;2023-06-26T06:43:21;6.70;;;3.72;;
20022;SDS011;10172;42.054;24.546;2023-06-26T06:45:47;6.22;;;3.40;;
20022;SDS011;10172;42.054;24.546;2023-06-26T06:48:12;6.95;;;3.60;;
20022;SDS011;10172;42.054;24.546;2023-06-26T06:50:38;5.93;;;3.67;;
20022;SDS011;10172;42.054;24.546;2023-06-26T06:53:03;7.63;;;3.33;;
20022;SDS011;10172;42.054;24.546;2023-06-26T06:55:29;7.70;;;3.03;;
20022;SDS011;10172;42.054;24.546;2023-06-26T06:57:54;6.10;;;3.53;;
20022;SDS011;10172;42.054;24.546;2023-06-26T07:00:20;6.43;;;3.97;;
20022;SDS011;10172;42.054;24.546;2023-06-26T07:02:46;5.40;;;3.58;;
20022;SDS011;10172;42.054;24.546;2023-06-26T07:05:12;6.72;;;3.58;;
20022;SDS011;10172;42.054;24.546;2023-06-26T07:07:38;7.63;;;4.13;;
20022;SDS011;10172;42.054;24.546;2023-06-26T07:10:05;4.65;;;3.30;;
20022;SDS011;10172;42.054;24.546;2023-06-26T07:12:35;5.75;;;3.60;;
20022;SDS011;10172;42.054;24.546;2023-06-26T07:15:01;6.32;;;3.47;;
20022;SDS011;10172;42.054;24.546;2023-06-26T07:17:29;7.10;;;3.67;;
20022;SDS011;10172;42.054;24.546;2023-06-26T07:19:55;10.65;;;3.83;;
20022;SDS011;10172;42.054;24.546;2023-06-26T07:22:20;5.80;;;3.85;;
20022;SDS011;10172;42.054;24.546;2023-06-26T07:24:46;6.35;;;4.03;;
20022;SDS011;10172;42.054;24.546;2023-06-26T07:27:13;5.05;;;3.63;;
20022;SDS011;10172;42.054;24.546;2023-06-26T07:29:39;5.85;;;3.47;;
20022;SDS011;10172;42.054;24.546;2023-06-26T07:32:05;5.45;;;3.30;;
20022;SDS011;10172;42.054;24.546;2023-06-26T07:34:30;5.20;;;3.38;;
20022;SDS011;10172;42.054;24.546;2023-06-26T07:36:56;7.07;;;4.30;;
20022;SDS011;10172;42.054;24.546;2023-06-26T07:39:21;6.28;;;3.83;;
20022;SDS011;10172;42.054;24.546;2023-06-26T07:41:47;6.70;;;3.72;;
20022;SDS011;10172;42.054;24.546;2023-06-26T07:44:12;5.82;;;3.95;;
20022;SDS011;10172;42.054;24.546;2023-06-26T07:46:39;9.25;;;4.38;;
20022;SDS011;10172;42.054;24.546;2023-06-26T07:49:04;8.55;;;3.67;;
20022;SDS011;10172;42.054;24.546;2023-06-26T07:51:30;6.70;;;3.90;;
20022;SDS011;10172;42.054;24.546;2023-06-26T07:53:55;6.95;;;3.80;;
20022;SDS011;10172;42.054;24.546;2023-06-26T07:56:21;7.65;;;3.80;;
20022;SDS011;10172;42.054;24.546;2023-06-26T07:58:46;6.93;;;3.70;;
20022;SDS011;10172;42.054;24.546;2023-06-26T08:01:11;9.57;;;3.22;;
20022;SDS011;10172;42.054;24.546;2023-06-26T08:03:37;6.20;;;3.47;;
20022;SDS011;10172;42.054;24.546;2023-06-26T08:06:02;8.07;;;3.50;;
20022;SDS011;10172;42.054;24.546;2023-06-26T08:08:28;5.82;;;3.25;;
20022;SDS011;10172;42.054;24.546;2023-06-26T08:10:54;7.55;;;4.20;;
20022;SDS011;10172;42.054;24.546;2023-06-26T08:13:19;9.48;;;4.20;;
20022;SDS011;10172;42.054;24.546;2023-06-26T08:15:45;6.93;;;3.65;;
20022;SDS011;10172;42.054;24.546;2023-06-26T08:18:10;6.97;;;4.05;;
20022;SDS011;10172;42.054;24.546;2023-06-26T08:20:36;7.45;;;3.05;;
20022;SDS011;10172;42.054;24.546;2023-06-26T08:23:03;6.30;;;3.05;;
20022;SDS011;10172;42.054;24.546;2023-06-26T08:25:29;8.70;;;3.55;;
20022;SDS011;10172;42.054;24.546;2023-06-26T08:27:54;6.60;;;3.03;;
20022;SDS011;10172;42.054;24.546;2023-06-26T08:30:20;4.93;;;2.90;;
20022;SDS011;10172;42.054;24.546;2023-06-26T08:32:46;7.43;;;3.17;;
20022;SDS011;10172;42.054;24.546;2023-06-26T08:35:12;4.85;;;2.58;;
20022;SDS011;10172;42.054;24.546;2023-06-26T08:37:38;5.28;;;3.03;;
20022;SDS011;10172;42.054;24.546;2023-06-26T08:40:03;4.38;;;2.75;;
20022;SDS011;10172;42.054;24.546;2023-06-26T08:42:29;5.20;;;2.45;;
20022;SDS011;10172;42.054;24.546;2023-06-26T08:44:55;4.35;;;2.42;;
20022;SDS011;10172;42.054;24.546;2023-06-26T08:47:20;4.03;;;2.50;;
20022;SDS011;10172;42.054;24.546;2023-06-26T08:49:56;4.65;;;2.38;;
20022;SDS011;10172;42.054;24.546;2023-06-26T08:52:30;5.00;;;2.53;;
20022;SDS011;10172;42.054;24.546;2023-06-26T08:55:09;5.15;;;2.40;;
20022;SDS011;10172;42.054;24.546;2023-06-26T08:57:36;3.10;;;2.10;;
20022;SDS011;10172;42.054;24.546;2023-06-26T09:00:02;3.10;;;1.98;;
20022;SDS011;10172;42.054;24.546;2023-06-26T09:02:28;5.45;;;2.40;;
20022;SDS011;10172;42.054;24.546;2023-06-26T09:04:54;6.30;;;2.63;;
20022;SDS011;10172;42.054;24.546;2023-06-26T09:07:20;8.40;;;2.35;;
20022;SDS011;10172;42.054;24.546;2023-06-26T09:09:45;4.30;;;2.50;;
20022;SDS011;10172;42.054;24.546;2023-06-26T09:12:11;6.00;;;2.42;;
20022;SDS011;10172;42.054;24.546;2023-06-26T09:14:37;3.35;;;2.05;;
20022;SDS011;10172;42.054;24.546;2023-06-26T09:17:03;4.15;;;2.20;;
20022;SDS011;10172;42.054;24.546;2023-06-26T09:19:28;6.72;;;2.53;;
20022;SDS011;10172;42.054;24.546;2023-06-26T09:21:54;3.30;;;1.92;;
20022;SDS011;10172;42.054;24.546;2023-06-26T09:24:21;4.13;;;2.25;;
20022;SDS011;10172;42.054;24.546;2023-06-26T09:26:47;3.75;;;2.35;;
20022;SDS011;10172;42.054;24.546;2023-06-26T09:29:14;4.50;;;2.28;;
20022;SDS011;10172;42.054;24.546;2023-06-26T09:31:40;3.45;;;2.38;;
20022;SDS011;10172;42.054;24.546;2023-06-26T09:34:06;8.20;;;2.92;;
20022;SDS011;10172;42.054;24.546;2023-06-26T09:36:32;4.03;;;2.05;;
20022;SDS011;10172;42.054;24.546;2023-06-26T09:38:59;3.00;;;1.90;;
20022;SDS011;10172;42.054;24.546;2023-06-26T09:41:26;4.00;;;2.17;;
20022;SDS011;10172;42.054;24.546;2023-06-26T09:43:52;4.18;;;2.22;;
20022;SDS011;10172;42.054;24.546;2023-06-26T09:48:49;3.72;;;1.83;;
20022;SDS011;10172;42.054;24.546;2023-06-26T09:51:16;3.83;;;2.40;;
20022;SDS011;10172;42.054;24.546;2023-06-26T09:53:42;3.70;;;2.20;;
20022;SDS011;10172;42.054;24.546;2023-06-26T09:56:10;4.50;;;2.80;;
20022;SDS011;10172;42.054;24.546;2023-06-26T09:58:42;4.78;;;2.60;;
20022;SDS011;10172;42.054;24.546;2023-06-26T10:01:08;5.18;;;2.88;;
20022;SDS011;10172;42.054;24.546;2023-06-26T10:03:34;4.22;;;2.08;;
20022;SDS011;10172;42.054;24.546;2023-06-26T10:06:00;4.45;;;2.50;;
20022;SDS011;10172;42.054;24.546;2023-06-26T10:08:27;3.78;;;2.10;;
20022;SDS011;10172;42.054;24.546;2023-06-26T10:10:54;3.95;;;2.60;;
20022;SDS011;10172;42.054;24.546;2023-06-26T10:13:21;3.85;;;2.15;;
20022;SDS011;10172;42.054;24.546;2023-06-26T10:15:50;3.88;;;2.30;;
20022;SDS011;10172;42.054;24.546;2023-06-26T10:18:17;4.72;;;2.30;;
20022;SDS011;10172;42.054;24.546;2023-06-26T10:20:45;4.07;;;2.30;;
20022;SDS011;10172;42.054;24.546;2023-06-26T10:23:13;3.97;;;2.28;;
20022;SDS011;10172;42.054;24.546;2023-06-26T10:25:40;7.15;;;3.38;;
20022;SDS011;10172;42.054;24.546;2023-06-26T10:28:07;7.68;;;3.70;;
20022;SDS011;10172;42.054;24.546;2023-06-26T10:30:35;3.67;;;2.47;;
20022;SDS011;10172;42.054;24.546;2023-06-26T10:33:02;5.97;;;3.13;;
20022;SDS011;10172;42.054;24.546;2023-06-26T10:35:28;2.95;;;2.05;;
20022;SDS011;10172;42.054;24.546;2023-06-26T10:37:59;2.78;;;2.10;;
20022;SDS011;10172;42.054;24.546;2023-06-26T10:40:28;4.30;;;2.38;;
20022;SDS011;10172;42.054;24.546;2023-06-26T10:43:08;3.83;;;2.42;;
20022;SDS011;10172;42.054;24.546;2023-06-26T10:45:34;3.38;;;2.30;;
20022;SDS011;10172;42.054;24.546;2023-06-26T10:48:01;4.45;;;2.35;;
20022;SDS011;10172;42.054;24.546;2023-06-26T10:50:30;4.47;;;2.58;;
20022;SDS011;10172;42.054;24.546;2023-06-26T10:55:59;3.95;;;1.98;;
20022;SDS011;10172;42.054;24.546;2023-06-26T10:58:48;4.47;;;2.30;;
20022;SDS011;10172;42.054;24.546;2023-06-26T11:04:05;4.63;;;2.40;;
20022;SDS011;10172;42.054;24.546;2023-06-26T11:06:31;3.22;;;1.92;;
20022;SDS011;10172;42.054;24.546;2023-06-26T11:14:16;5.03;;;2.65;;
20022;SDS011;10172;42.054;24.546;2023-06-26T11:16:42;4.35;;;2.58;;
20022;SDS011;10172;42.054;24.546;2023-06-26T11:19:08;5.65;;;2.55;;
20022;SDS011;10172;42.054;24.546;2023-06-26T11:21:35;3.85;;;2.00;;
20022;SDS011;10172;42.054;24.546;2023-06-26T11:24:03;4.05;;;1.90;;
20022;SDS011;10172;42.054;24.546;2023-06-26T11:26:32;2.90;;;1.98;;
20022;SDS011;10172;42.054;24.546;2023-06-26T11:29:06;3.78;;;1.92;;
20022;SDS011;10172;42.054;24.546;2023-06-26T11:31:36;3.17;;;1.90;;
20022;SDS011;10172;42.054;24.546;2023-06-26T11:34:06;3.53;;;2.03;;
20022;SDS011;10172;42.054;24.546;2023-06-26T11:36:37;3.97;;;2.35;;
20022;SDS011;10172;42.054;24.546;2023-06-26T11:39:06;6.53;;;2.45;;
20022;SDS011;10172;42.054;24.546;2023-06-26T11:41:32;4.28;;;1.92;;
20022;SDS011;10172;42.054;24.546;2023-06-26T11:44:02;5.00;;;2.28;;
20022;SDS011;10172;42.054;24.546;2023-06-26T11:46:29;6.10;;;2.30;;
20022;SDS011;10172;42.054;24.546;2023-06-26T11:48:55;3.35;;;1.95;;
20022;SDS011;10172;42.054;24.546;2023-06-26T11:51:21;10.30;;;2.33;;
20022;SDS011;10172;42.054;24.546;2023-06-26T11:53:46;3.53;;;1.90;;
20022;SDS011;10172;42.054;24.546;2023-06-26T11:56:13;3.90;;;1.77;;
20022;SDS011;10172;42.054;24.546;2023-06-26T12:01:34;2.60;;;1.38;;
20022;SDS011;10172;42.054;24.546;2023-06-26T12:04:05;3.97;;;1.48;;
20022;SDS011;10172;42.054;24.546;2023-06-26T12:06:34;3.00;;;1.80;;
20022;SDS011;10172;42.054;24.546;2023-06-26T12:09:02;7.80;;;2.10;;
20022;SDS011;10172;42.054;24.546;2023-06-26T12:11:30;5.55;;;1.77;;
20022;SDS011;10172;42.054;24.546;2023-06-26T12:13:56;4.90;;;1.98;;
20022;SDS011;10172;42.054;24.546;2023-06-26T12:16:22;3.67;;;1.90;;
20022;SDS011;10172;42.054;24.546;2023-06-26T12:18:48;8.10;;;2.30;;
20022;SDS011;10172;42.054;24.546;2023-06-26T12:24:07;6.65;;;2.40;;
20022;SDS011;10172;42.054;24.546;2023-06-26T12:26:34;4.03;;;2.47;;
20022;SDS011;10172;42.054;24.546;2023-06-26T12:31:28;5.95;;;2.25;;
20022;SDS011;10172;42.054;24.546;2023-06-26T12:33:54;3.10;;;2.05;;
20022;SDS011;10172;42.054;24.546;2023-06-26T12:36:20;5.45;;;2.70;;
20022;SDS011;10172;42.054;24.546;2023-06-26T12:38:45;4.72;;;2.42;;
20022;SDS011;10172;42.054;24.546;2023-06-26T12:41:12;4.38;;;2.65;;
20022;SDS011;10172;42.054;24.546;2023-06-26T12:43:41;3.33;;;2.40;;
20022;SDS011;10172;42.054;24.546;2023-06-26T12:46:07;3.85;;;2.28;;
20022;SDS011;10172;42.054;24.546;2023-06-26T12:48:40;5.07;;;2.67;;
20022;SDS011;10172;42.054;24.546;2023-06-26T12:51:12;4.32;;;2.65;;
20022;SDS011;10172;42.054;24.546;2023-06-26T12:53:39;4.22;;;2.72;;
20022;SDS011;10172;42.054;24.546;2023-06-26T12:56:06;4.93;;;2.30;;
20022;SDS011;10172;42.054;24.546;2023-06-26T12:58:32;4.97;;;2.72;;
20022;SDS011;10172;42.054;24.546;2023-06-26T13:00:58;3.97;;;2.58;;
20022;SDS011;10172;42.054;24.546;2023-06-26T13:03:24;7.55;;;2.40;;
20022;SDS011;10172;42.054;24.546;2023-06-26T13:05:49;2.90;;;2.00;;
20022;SDS011;10172;42.054;24.546;2023-06-26T13:08:14;2.85;;;2.13;;
20022;SDS011;10172;42.054;24.546;2023-06-26T13:10:42;3.05;;;1.85;;
20022;SDS011;10172;42.054;24.546;2023-06-26T13:13:09;3.72;;;1.95;;
20022;SDS011;10172;42.054;24.546;2023-06-26T13:15:35;4.22;;;2.10;;
20022;SDS011;10172;42.054;24.546;2023-06-26T13:18:00;4.40;;;1.92;;
20022;SDS011;10172;42.054;24.546;2023-06-26T13:20:26;4.05;;;1.92;;
20022;SDS011;10172;42.054;24.546;2023-06-26T13:22:51;4.40;;;1.88;;
20022;SDS011;10172;42.054;24.546;2023-06-26T13:25:18;4.25;;;1.80;;
20022;SDS011;10172;42.054;24.546;2023-06-26T13:27:44;3.80;;;1.83;;
20022;SDS011;10172;42.054;24.546;2023-06-26T13:30:09;2.30;;;1.65;;
20022;SDS011;10172;42.054;24.546;2023-06-26T13:32:35;4.03;;;1.80;;
20022;SDS011;10172;42.054;24.546;2023-06-26T13:35:00;2.33;;;1.42;;
20022;SDS011;10172;42.054;24.546;2023-06-26T13:37:26;1.88;;;1.45;;
20022;SDS011;10172;42.054;24.546;2023-06-26T13:39:51;4.13;;;1.98;;
20022;SDS011;10172;42.054;24.546;2023-06-26T13:42:17;86.40;;;15.93;;
20022;SDS011;10172;42.054;24.546;2023-06-26T13:44:43;12.23;;;3.20;;
20022;SDS011;10172;42.054;24.546;2023-06-26T13:47:12;4.32;;;2.65;;
20022;SDS011;10172;42.054;24.546;2023-06-26T13:49:38;4.82;;;2.65;;
20022;SDS011;10172;42.054;24.546;2023-06-26T13:52:04;9.70;;;2.80;;
20022;SDS011;10172;42.054;24.546;2023-06-26T13:54:33;4.03;;;2.20;;
20022;SDS011;10172;42.054;24.546;2023-06-26T13:57:00;5.93;;;3.10;;
20022;SDS011;10172;42.054;24.546;2023-06-26T13:59:27;5.47;;;2.50;;
20022;SDS011;10172;42.054;24.546;2023-06-26T14:01:53;5.25;;;2.75;;
20022;SDS011;10172;42.054;24.546;2023-06-26T14:04:18;4.15;;;2.50;;
20022;SDS011;10172;42.054;24.546;2023-06-26T14:06:44;4.68;;;2.60;;
20022;SDS011;10172;42.054;24.546;2023-06-26T14:09:10;6.55;;;2.75;;
20022;SDS011;10172;42.054;24.546;2023-06-26T14:11:36;4.65;;;2.60;;
20022;SDS011;10172;42.054;24.546;2023-06-26T14:14:01;4.70;;;2.60;;
20022;SDS011;10172;42.054;24.546;2023-06-26T14:16:27;3.47;;;2.30;;
20022;SDS011;10172;42.054;24.546;2023-06-26T14:18:54;5.13;;;2.22;;
20022;SDS011;10172;42.054;24.546;2023-06-26T14:21:19;3.88;;;2.22;;
20022;SDS011;10172;42.054;24.546;2023-06-26T14:23:46;4.90;;;2.13;;
20022;SDS011;10172;42.054;24.546;2023-06-26T14:26:11;3.75;;;2.15;;
20022;SDS011;10172;42.054;24.546;2023-06-26T14:28:37;4.68;;;1.60;;
20022;SDS011;10172;42.054;24.546;2023-06-26T14:31:03;7.47;;;2.75;;
20022;SDS011;10172;42.054;24.546;2023-06-26T14:33:28;4.15;;;2.20;;
20022;SDS011;10172;42.054;24.546;2023-06-26T14:35:54;10.60;;;3.05;;
20022;SDS011;10172;42.054;24.546;2023-06-26T14:38:19;6.18;;;2.70;;
20022;SDS011;10172;42.054;24.546;2023-06-26T14:40:45;5.72;;;3.15;;
20022;SDS011;10172;42.054;24.546;2023-06-26T14:43:10;5.13;;;2.90;;
20022;SDS011;10172;42.054;24.546;2023-06-26T14:45:36;5.45;;;3.22;;
20022;SDS011;10172;42.054;24.546;2023-06-26T14:48:01;8.10;;;3.35;;
20022;SDS011;10172;42.054;24.546;2023-06-26T14:50:26;6.88;;;3.65;;
20022;SDS011;10172;42.054;24.546;2023-06-26T14:52:52;5.93;;;3.30;;
20022;SDS011;10172;42.054;24.546;2023-06-26T14:55:17;7.88;;;3.40;;
20022;SDS011;10172;42.054;24.546;2023-06-26T14:57:43;3.58;;;2.33;;
20022;SDS011;10172;42.054;24.546;2023-06-26T15:00:09;4.05;;;2.45;;